Stations météo

Publicité
Le Puy, France (7471): Température de l'air & dewpoint: 21.06.2019 12:00:00 - 27.06.2019 12:00:00 (CEST)Le Puy, France (7471): Température de l'air 5cm: 21.06.2019 12:00:00 - 27.06.2019 12:00:00 (CEST)Le Puy, France (7471): Température de l'air -20cm & Température de l'air -100cm: 21.06.2019 12:00:00 - 27.06.2019 12:00:00 (CEST)Le Puy, France (7471): Vitesse du vent & gusts: 21.06.2019 12:00:00 - 27.06.2019 12:00:00 (CEST)Le Puy, France (7471): Direction du vent: 21.06.2019 12:00:00 - 27.06.2019 12:00:00 (CEST)Le Puy, France (7471): visibility: 21.06.2019 12:00:00 - 27.06.2019 12:00:00 (CEST)Le Puy, France (7471): Ensoleillement: 21.06.2019 12:00:00 - 27.06.2019 12:00:00 (CEST)Le Puy, France (7471): Quantités de précipitations: 21.06.2019 12:00:00 - 27.06.2019 12:00:00 (CEST)
Date & Time tt [°C] td [°C] tt 5cm [°C] tt -20cm [°C] tt -100cm [°C] ff [km/h] ff [knt] fx [km/h] fx [knt] dd vv [km] sd [min] rr [mm]
27.06.2019 12:00:00 - - - - - - - - - - - - -
27.06.2019 11:00:00 29,6 15,7 34,7 19,0 12,9 4 2 9 5 ENE 15 60 0,0
27.06.2019 10:00:00 26,6 11,1 28,9 19,1 12,8 2 1 6 3 W 20 60 0,0
27.06.2019 09:00:00 24,0 13,8 25,8 19,2 12,8 0 0 5 3 N 20 60 0,0
27.06.2019 08:00:00 18,7 12,7 17,2 19,4 12,8 0 0 6 3 N 20 60 0,0
27.06.2019 07:00:00 15,3 10,9 12,4 19,6 12,9 5 3 18 10 W 20 35 0,0
27.06.2019 06:00:00 14,2 9,8 10,5 19,6 12,8 5 3 9 5 SW 20 0 0,0
27.06.2019 05:00:00 13,8 10,2 11,0 19,7 12,8 3 1 10 5 WSW 20 0 0,0
27.06.2019 04:00:00 15,1 10,5 12,5 19,9 12,8 7 4 9 5 WSW 20 0 0,0
27.06.2019 03:00:00 16,6 10,4 13,1 19,9 12,8 7 4 10 5 SW 20 0 0,0
27.06.2019 02:00:00 15,8 11,0 13,8 19,9 12,8 4 2 9 5 WSW 20 0 0,0
27.06.2019 01:00:00 17,4 11,4 14,8 20,0 12,8 7 4 9 5 SW 20 0 0,0
27.06.2019 00:00:00 18,1 12,5 15,8 20,0 12,8 7 4 10 5 SW 20 0 0,0
26.06.2019 23:00:00 18,7 13,8 15,8 19,9 12,8 3 2 11 6 WSW 20 0 0,0
26.06.2019 22:00:00 22,0 15,8 20,4 19,7 12,7 6 3 15 8 SW 20 8 0,0
26.06.2019 21:00:00 26,5 15,2 25,2 19,6 12,8 8 5 31 17 S 20 60 0,0
26.06.2019 20:00:00 29,3 14,7 30,1 19,4 12,7 14 8 29 16 SE 20 60 0,0
26.06.2019 19:00:00 31,1 13,8 32,6 19,2 12,7 15 8 26 14 SE 19 60 0,0
26.06.2019 18:00:00 32,4 13,1 36,0 18,9 12,7 13 7 30 16 SSE 20 60 0,0
26.06.2019 17:00:00 32,7 14,3 36,7 18,7 12,7 16 9 31 17 SE 20 60 0,0
26.06.2019 16:00:00 33,6 13,6 38,8 18,5 12,7 7 4 24 13 SSE 20 60 0,0
26.06.2019 15:00:00 33,4 12,4 38,3 18,3 12,7 10 5 24 13 S 20 60 0,0
26.06.2019 14:00:00 32,2 12,9 36,4 18,2 12,7 14 8 26 14 SSE 20 60 0,0
26.06.2019 13:00:00 31,2 13,0 35,9 18,1 12,7 14 8 26 14 SE 20 60 0,0
26.06.2019 12:00:00 30,0 11,5 32,7 18,2 12,7 11 6 32 18 SSE 20 60 0,0
26.06.2019 11:00:00 28,2 10,8 30,4 18,2 12,7 16 9 33 18 SE 20 60 0,0
26.06.2019 10:00:00 27,1 9,0 28,6 18,3 12,7 16 9 32 17 ESE 20 60 0,0
26.06.2019 09:00:00 26,0 8,0 25,9 18,4 12,7 13 7 26 14 SE 20 60 0,0
26.06.2019 08:00:00 20,8 12,2 19,0 18,5 12,7 6 3 19 11 N 20 60 0,0
26.06.2019 07:00:00 17,8 9,7 14,1 18,6 12,7 5 3 21 11 W 20 35 0,0
26.06.2019 06:00:00 16,8 10,4 13,0 18,7 12,7 5 3 21 12 SSW 20 0 0,0
26.06.2019 05:00:00 15,6 9,9 13,8 18,8 12,7 5 3 26 14 S 20 0 0,0
26.06.2019 04:00:00 17,8 9,9 15,9 18,8 12,7 8 4 37 20 S 20 0 0,0
26.06.2019 03:00:00 22,1 9,6 18,9 18,9 12,7 18 10 40 22 ESE 20 0 0,0
26.06.2019 02:00:00 21,5 9,4 15,0 18,9 12,6 13 7 27 14 SE 20 0 0,0
26.06.2019 01:00:00 16,8 11,5 15,4 19,0 12,7 6 4 19 11 SW 20 0 0,0
26.06.2019 00:00:00 21,2 11,5 15,7 19,0 12,6 11 6 23 12 SE 20 0 0,0
25.06.2019 23:00:00 20,2 11,9 17,3 19,0 12,7 6 4 13 7 SSE 20 0 0,0
25.06.2019 22:00:00 21,0 12,4 19,0 18,8 12,6 9 5 15 8 SW 20 10 0,0
25.06.2019 21:00:00 23,5 12,8 22,1 18,8 12,6 7 4 17 9 S 20 60 0,0
25.06.2019 20:00:00 26,8 13,2 28,3 18,7 12,6 7 4 29 16 S 20 60 0,0
25.06.2019 19:00:00 26,6 13,7 26,9 18,5 12,6 16 9 36 19 SSE 20 42 0,0
25.06.2019 18:00:00 27,7 11,7 29,1 18,4 12,6 16 8 41 22 SSE 20 39 0,0
25.06.2019 17:00:00 28,0 12,4 29,7 18,2 12,6 18 10 41 22 SSE 20 32 0,0
25.06.2019 16:00:00 27,5 11,1 28,6 18,2 12,6 17 9 44 24 SSE 20 41 0,0
25.06.2019 15:00:00 27,0 11,1 29,7 18,1 12,6 18 10 43 23 SSE 20 43 0,0
25.06.2019 14:00:00 27,5 9,3 28,7 18,1 12,6 19 10 40 21 SSE 20 45 0,0
25.06.2019 13:00:00 25,7 8,7 28,0 18,1 12,6 19 10 37 20 SSE 20 23 0,0
25.06.2019 12:00:00 25,9 9,3 26,0 18,1 12,6 11 6 36 19 SSE 20 27 0,0
25.06.2019 11:00:00 24,6 7,3 25,6 18,2 12,6 23 13 50 27 SSE 20 42 0,0
25.06.2019 10:00:00 24,1 6,8 25,3 18,3 12,6 19 10 44 24 SSE 20 60 0,0
25.06.2019 09:00:00 23,0 5,4 23,5 18,4 12,6 22 12 44 24 SE 20 60 0,0
25.06.2019 08:00:00 21,7 6,8 19,8 18,5 12,6 26 14 41 22 SE 20 60 0,0
25.06.2019 07:00:00 20,4 7,0 18,9 18,6 12,6 23 12 44 24 SE 20 36 0,0
25.06.2019 06:00:00 20,2 8,5 18,2 18,7 12,6 16 9 31 17 SE 20 0 0,0
25.06.2019 05:00:00 20,2 10,0 18,7 18,8 12,5 11 6 35 19 SSE 20 0 0,0
25.06.2019 04:00:00 20,3 9,8 17,9 18,9 12,5 16 9 33 18 SSE 20 0 0,0
25.06.2019 03:00:00 20,0 9,5 17,5 18,9 12,5 13 7 36 20 SSE 20 0 0,0
25.06.2019 02:00:00 19,6 9,5 16,0 19,0 12,5 14 8 36 19 SSE 20 0 0,0
25.06.2019 01:00:00 19,7 8,7 15,6 19,0 12,5 2 1 10 6 NE 20 0 0,0
25.06.2019 00:00:00 20,4 9,0 17,2 19,0 12,5 3 2 22 12 SW 20 0 0,0
24.06.2019 23:00:00 20,6 9,8 18,4 19,0 12,5 12 6 23 13 SSE 20 0 0,0
24.06.2019 22:00:00 21,7 9,2 19,6 18,9 12,5 10 6 24 13 S 16 0 0,0
24.06.2019 21:00:00 21,9 10,7 20,5 18,8 12,5 7 4 16 9 SSE 20 14 0,0
24.06.2019 20:00:00 23,5 11,5 23,6 18,7 12,5 6 3 26 14 S 20 2 0,0
24.06.2019 19:00:00 25,9 12,4 26,3 18,5 12,5 12 6 28 15 S 20 46 0,0
24.06.2019 18:00:00 25,3 11,8 26,3 18,3 12,5 13 7 39 21 SE 20 6 0,0
24.06.2019 17:00:00 27,0 11,5 28,8 18,1 12,5 16 8 41 22 SSE 20 33 0,0
24.06.2019 16:00:00 27,3 11,7 31,0 18,0 12,5 19 10 41 22 SSE 20 58 0,0
24.06.2019 15:00:00 28,2 9,5 32,8 17,9 12,5 21 11 36 20 SSE 20 60 0,0
24.06.2019 14:00:00 27,5 10,7 31,7 17,7 12,4 13 7 40 21 ESE 20 60 0,0
24.06.2019 13:00:00 27,0 10,2 29,3 17,7 12,5 14 7 35 19 SSE 20 56 0,0
24.06.2019 12:00:00 25,2 10,3 27,7 17,7 12,4 18 10 40 22 SSE 20 45 0,0
24.06.2019 11:00:00 23,3 15,4 25,4 17,8 12,4 6 3 13 7 ESE 20 57 0,0
24.06.2019 10:00:00 20,9 15,2 21,8 17,9 12,4 3 2 8 4 ENE 20 40 0,0
24.06.2019 09:00:00 17,4 14,7 18,3 18,0 12,4 2 1 4 2 N 20 18 0,0
24.06.2019 08:00:00 16,8 13,9 17,4 18,1 12,4 0 0 2 1 N 20 46 0,0
24.06.2019 07:00:00 13,8 12,7 10,7 18,2 12,4 4 2 19 11 WSW 20 36 0,0
24.06.2019 06:00:00 11,4 10,5 10,4 18,4 12,5 4 2 6 4 SW 20 0 0,0
24.06.2019 05:00:00 12,0 10,9 10,3 18,4 12,4 5 3 7 4 SW 20 0 0,0
24.06.2019 04:00:00 13,0 11,6 11,7 18,5 12,4 2 1 8 4 WSW 20 0 0,0
24.06.2019 03:00:00 13,5 12,1 12,0 18,6 12,4 4 2 5 3 WSW 20 0 0,0
24.06.2019 02:00:00 14,2 12,6 13,2 18,6 12,4 4 2 9 5 SW 20 0 0,0
24.06.2019 01:00:00 14,8 13,0 13,8 18,6 12,4 5 3 8 4 WSW 20 0 0,0
24.06.2019 00:00:00 15,6 13,6 14,3 18,6 12,4 4 2 6 3 W 20 0 0,0
23.06.2019 23:00:00 17,4 14,5 16,0 18,5 12,4 3 1 8 4 W 20 0 0,0
23.06.2019 22:00:00 18,2 14,5 16,5 18,3 12,4 2 1 6 3 SSW 12 0 0,0
23.06.2019 21:00:00 22,2 15,8 20,9 18,2 12,4 4 2 5 3 SSW 20 36 0,0
23.06.2019 20:00:00 25,2 13,7 27,1 18,0 12,4 4 2 6 4 ESE 20 51 0,0
23.06.2019 19:00:00 26,8 9,6 28,8 17,8 12,4 2 1 8 4 N 20 50 0,0
23.06.2019 18:00:00 26,0 8,0 29,0 17,6 12,3 3 2 8 4 NNE 20 26 0,0
23.06.2019 17:00:00 25,7 9,9 28,1 17,4 12,4 4 2 8 4 NNE 20 0 0,0
23.06.2019 16:00:00 25,1 11,3 27,7 17,2 12,4 5 3 13 7 ESE 20 20 0,0
23.06.2019 15:00:00 25,1 12,0 28,3 17,0 12,4 4 2 13 7 ENE 20 42 0,0
23.06.2019 14:00:00 23,7 12,3 26,1 16,9 12,4 4 2 14 8 ESE 20 16 0,0
23.06.2019 13:00:00 23,2 15,0 28,7 16,8 12,3 5 3 13 7 E 20 56 0,0
23.06.2019 12:00:00 20,7 14,8 25,1 16,9 12,3 3 2 11 6 E 20 60 0,0
23.06.2019 11:00:00 18,0 14,3 22,8 16,9 12,3 3 2 9 5 E 20 60 0,0
23.06.2019 10:00:00 15,2 14,1 16,3 17,0 12,4 2 1 10 5 N 19 29 0,0
23.06.2019 09:00:00 13,0 12,5 13,8 17,0 12,3 4 2 7 4 ESE 9 6 0,0
23.06.2019 08:00:00 12,4 11,9 13,2 17,1 12,3 2 1 6 4 E 0,6 0 0,2
23.06.2019 07:00:00 12,7 12,2 13,1 17,2 12,3 4 2 6 4 E 0,2 0 0,0
23.06.2019 06:00:00 12,6 12,0 13,1 17,3 12,3 3 2 7 4 ESE 12 0 0,0
23.06.2019 05:00:00 13,3 12,5 12,9 17,4 12,3 2 1 6 3 ESE 13 0 0,0
23.06.2019 04:00:00 12,5 11,7 10,9 17,5 12,3 2 1 6 3 SSW 17 0 0,0
23.06.2019 03:00:00 11,4 10,6 10,4 17,5 12,3 3 1 9 5 SW 19 0 0,0
23.06.2019 02:00:00 12,2 11,1 10,5 17,5 12,3 3 2 4 2 W 20 0 0,0
23.06.2019 01:00:00 13,0 11,9 11,6 17,5 12,3 2 1 6 4 W 20 0 0,0
23.06.2019 00:00:00 12,7 11,4 11,7 17,5 12,3 5 3 9 5 SW 20 0 0,0
22.06.2019 23:00:00 13,7 12,1 12,4 17,4 12,3 4 2 5 3 WSW 20 0 0,0
22.06.2019 22:00:00 16,4 12,7 14,8 17,3 12,3 4 2 8 4 WNW 20 0 0,0
22.06.2019 21:00:00 17,5 13,2 17,1 17,2 12,3 5 3 12 6 N 20 15 0,0
22.06.2019 20:00:00 18,9 12,9 19,6 17,0 12,3 8 4 16 9 NNE 20 41 0,0
22.06.2019 19:00:00 20,5 12,2 21,0 16,8 12,3 10 5 16 9 NW 20 14 0,0
22.06.2019 18:00:00 20,6 11,8 23,0 16,5 12,2 9 5 14 8 NE 20 46 0,0
22.06.2019 17:00:00 20,8 10,3 28,7 16,4 12,3 8 4 14 8 NNW 20 60 0,0
22.06.2019 16:00:00 19,4 11,2 22,3 16,3 12,2 4 2 14 8 N 20 48 0,0
22.06.2019 15:00:00 19,1 11,1 25,1 16,3 12,2 4 2 14 7 E 20 57 0,0
22.06.2019 14:00:00 17,6 11,8 19,6 16,3 12,2 8 5 19 10 WNW 20 25 0,0
22.06.2019 13:00:00 15,6 11,8 17,8 16,3 12,2 8 4 17 9 WNW 20 0 0,0
22.06.2019 12:00:00 15,1 11,7 16,9 16,3 12,2 6 3 16 9 WSW 20 0 0,0
22.06.2019 11:00:00 14,0 12,4 14,3 16,4 12,2 5 3 12 6 WNW 20 0 0,0
22.06.2019 10:00:00 12,8 12,0 13,6 16,5 12,2 9 5 15 8 W 18 0 0,0
22.06.2019 09:00:00 13,1 12,5 13,7 16,5 12,2 5 3 10 5 WNW 20 0 0,0
22.06.2019 08:00:00 12,7 12,2 12,9 16,6 12,2 5 3 13 7 W 20 0 0,0
22.06.2019 07:00:00 12,8 12,3 12,9 16,7 12,2 3 2 7 4 WNW 13 0 0,0
22.06.2019 06:00:00 12,7 12,2 12,8 16,8 12,2 4 2 7 4 E 10 0 0,0
22.06.2019 05:00:00 12,8 12,3 12,8 16,9 12,2 3 2 8 4 WSW 20 0 0,0
22.06.2019 04:00:00 12,5 12,0 12,7 17,0 12,2 2 1 5 3 S 3,8 0 0,4
22.06.2019 03:00:00 12,5 11,9 12,5 17,0 12,2 2 1 9 5 NE 2,8 0 0,0
22.06.2019 02:00:00 12,4 11,6 12,6 17,0 12,2 7 4 23 12 NE 20 0 0,0
22.06.2019 01:00:00 12,8 12,2 10,1 17,1 12,2 12 7 24 13 W 20 0 0,0
22.06.2019 00:00:00 12,5 11,6 11,3 17,1 12,2 3 1 10 5 W 20 0 0,0
21.06.2019 23:00:00 12,4 11,1 12,0 17,1 12,2 5 3 25 13 WSW 20 0 5,1
21.06.2019 22:00:00 15,3 14,2 15,0 17,1 12,2 0 0 10 5 N 9 0 1,2
21.06.2019 21:00:00 15,7 13,9 15,8 17,1 12,1 6 3 11 6 ENE 20 27 0,0
21.06.2019 20:00:00 16,0 14,2 16,9 17,1 12,1 4 2 15 8 E 20 8 0,0
21.06.2019 19:00:00 16,3 14,7 16,0 17,1 12,1 4 2 14 7 ENE 20 10 6,6
21.06.2019 18:00:00 16,4 14,1 17,1 17,1 12,1 9 5 18 10 ENE 20 0 0,0
21.06.2019 17:00:00 17,0 14,3 17,8 17,0 12,1 13 7 18 10 NE 20 0 0,0
21.06.2019 16:00:00 16,9 14,5 16,9 17,0 12,1 8 5 16 9 NE 20 6 0,0
21.06.2019 15:00:00 15,7 14,1 15,8 17,0 12,1 6 3 9 5 NNE 20 0 0,4
21.06.2019 14:00:00 15,8 13,6 16,0 17,0 12,1 4 2 11 6 N 20 0 0,8
21.06.2019 13:00:00 16,0 12,7 17,5 17,0 12,0 6 3 14 7 N 20 0 0,0
21.06.2019 12:00:00 16,2 12,7 19,1 17,1 12,1 8 4 16 9 NNE 20 9 0,0

tt = Température de l'air
td = dewpoint
tt 5cm = Température de l'air 5cm
tt -20cm = Température de l'air -20cm
tt -100cm = Température de l'air -100cm
ff = Vitesse du vent
fx = gusts
dd = Direction du vent
vv = visibility
sd = Ensoleillement
rr = Quantités de précipitations

stations d'obs. à proximité